Time;durP1;ratioP1;P1;durP2;ratioP2;P2;SDS_P1;SDS_P2;PMS_P1;PMS_P2;Temp;Humidity;BMP_temperature;BMP_pressure;BME280_temperature;BME280_humidity;BME280_pressure;Samples;Min_cycle;Max_cycle;Signal;HPM_P1;HPM_P2
2022/07/08 00:02:00;;;;;;;13.18;2.88;;;;;;;;;;5022655;28;20052;-61
2022/07/08 00:04:26;;;;;;;14.63;2.80;;;;;;;;;;5024434;28;20049;-63
2022/07/08 00:06:51;;;;;;;15.07;2.83;;;;;;;;;;5025204;28;20372;-62
2022/07/08 00:09:17;;;;;;;18.35;2.80;;;;;;;;;;5026105;28;20041;-64
2022/07/08 00:11:43;;;;;;;15.30;3.38;;;;;;;;;;5024105;28;20530;-62
2022/07/08 00:14:10;;;;;;;16.63;3.00;;;;;;;;;;5025160;28;20472;-61
2022/07/08 00:16:43;;;;;;;11.27;2.72;;;;;;;;;;5025741;28;20052;-61
2022/07/08 00:19:14;;;;;;;17.25;3.10;;;;;;;;;;5026229;28;20025;-62
2022/07/08 00:21:44;;;;;;;19.08;3.40;;;;;;;;;;5028484;28;20021;-61
2022/07/08 00:24:13;;;;;;;14.85;2.60;;;;;;;;;;5024842;28;20506;-62
2022/07/08 00:26:40;;;;;;;20.95;3.28;;;;;;;;;;5023674;28;20407;-62
2022/07/08 00:29:06;;;;;;;17.58;2.67;;;;;;;;;;5025820;28;20056;-61
2022/07/08 00:31:32;;;;;;;14.45;2.67;;;;;;;;;;5023223;28;20021;-66
2022/07/08 00:33:58;;;;;;;14.20;2.90;;;;;;;;;;5015313;28;20109;-64
2022/07/08 00:36:24;;;;;;;12.60;2.72;;;;;;;;;;5015218;28;20152;-65
2022/07/08 00:38:50;;;;;;;14.13;2.90;;;;;;;;;;5015204;28;20501;-65
2022/07/08 00:41:16;;;;;;;20.52;3.40;;;;;;;;;;5014969;28;20102;-66
2022/07/08 00:43:44;;;;;;;12.52;2.40;;;;;;;;;;5015162;28;20037;-64
2022/07/08 00:46:11;;;;;;;13.00;2.63;;;;;;;;;;5015128;28;20030;-65
2022/07/08 00:48:37;;;;;;;19.95;3.08;;;;;;;;;;5014908;28;20014;-65
2022/07/08 00:51:05;;;;;;;13.02;2.78;;;;;;;;;;5015067;28;20026;-65
2022/07/08 00:53:33;;;;;;;13.48;3.08;;;;;;;;;;5015037;28;20443;-66
2022/07/08 00:55:59;;;;;;;16.95;3.03;;;;;;;;;;5014693;28;20022;-66
2022/07/08 00:58:26;;;;;;;14.32;3.33;;;;;;;;;;5014952;28;20036;-65
2022/07/08 01:00:53;;;;;;;15.25;2.80;;;;;;;;;;5014660;28;20101;-63
2022/07/08 01:03:19;;;;;;;11.82;2.60;;;;;;;;;;5027920;28;20052;-66
2022/07/08 01:05:45;;;;;;;9.73;2.40;;;;;;;;;;5034554;28;20087;-65
2022/07/08 01:08:11;;;;;;;18.60;2.65;;;;;;;;;;5034401;28;20025;-65
2022/07/08 01:10:37;;;;;;;11.90;3.17;;;;;;;;;;5034211;28;20108;-66
2022/07/08 01:13:04;;;;;;;21.73;3.40;;;;;;;;;;5034415;28;20030;-65
2022/07/08 01:15:30;;;;;;;11.35;2.78;;;;;;;;;;5033929;28;20109;-65
2022/07/08 01:17:55;;;;;;;14.52;2.88;;;;;;;;;;5034222;28;20104;-66
2022/07/08 01:20:21;;;;;;;12.93;2.45;;;;;;;;;;5034194;28;20025;-65
2022/07/08 01:22:46;;;;;;;15.02;2.42;;;;;;;;;;5034114;28;20034;-65
2022/07/08 01:25:12;;;;;;;10.75;2.40;;;;;;;;;;5034001;28;20033;-63
2022/07/08 01:27:38;;;;;;;24.17;3.08;;;;;;;;;;5034214;28;20029;-65
2022/07/08 01:30:05;;;;;;;9.45;2.58;;;;;;;;;;5032698;28;20112;-65
2022/07/08 01:32:36;;;;;;;17.23;3.00;;;;;;;;;;5034061;28;20100;-65
2022/07/08 01:35:02;;;;;;;;;;;;;;;;;;5034354;28;20096;-65
2022/07/08 01:37:27;;;;;;;14.25;2.92;;;;;;;;;;5033781;28;20020;-66
2022/07/08 01:39:53;;;;;;;12.68;2.60;;;;;;;;;;5033616;28;20132;-65
2022/07/08 01:42:18;;;;;;;16.60;2.53;;;;;;;;;;5032537;28;20017;-62
2022/07/08 01:44:44;;;;;;;15.70;3.03;;;;;;;;;;5033809;28;20048;-64
2022/07/08 01:47:10;;;;;;;11.35;2.30;;;;;;;;;;5033771;28;20116;-66
2022/07/08 01:49:35;;;;;;;17.60;2.50;;;;;;;;;;5033531;28;20033;-65
2022/07/08 01:52:01;;;;;;;18.52;2.97;;;;;;;;;;5033708;28;20032;-66
2022/07/08 01:54:26;;;;;;;12.30;2.80;;;;;;;;;;5033498;28;20025;-65
2022/07/08 01:57:13;;;;;;;18.85;2.60;;;;;;;;;;5033469;28;20559;-66
2022/07/08 01:59:43;;;;;;;10.73;2.30;;;;;;;;;;5033449;28;20412;-66
2022/07/08 02:02:10;;;;;;;13.32;3.47;;;;;;;;;;5033009;28;20179;-66
2022/07/08 02:04:35;;;;;;;16.80;2.25;;;;;;;;;;5033431;28;20037;-65
2022/07/08 02:07:01;;;;;;;19.85;3.85;;;;;;;;;;5033059;28;20033;-66
2022/07/08 02:09:27;;;;;;;13.05;2.60;;;;;;;;;;5032944;28;20025;-63
2022/07/08 02:14:36;;;;;;;12.32;2.40;;;;;;;;;;5033178;28;20406;-64
2022/07/08 02:17:03;;;;;;;8.48;2.08;;;;;;;;;;5033072;28;20025;-65
2022/07/08 02:19:29;;;;;;;12.48;2.50;;;;;;;;;;5033482;28;20382;-65
2022/07/08 02:21:55;;;;;;;16.67;2.50;;;;;;;;;;5033077;28;20025;-65
2022/07/08 02:24:20;;;;;;;13.30;2.65;;;;;;;;;;5032904;28;20036;-63
2022/07/08 02:26:46;;;;;;;13.45;2.30;;;;;;;;;;5032330;28;20050;-63
2022/07/08 02:29:12;;;;;;;16.40;2.60;;;;;;;;;;5032945;28;20022;-66
2022/07/08 02:31:37;;;;;;;13.68;2.75;;;;;;;;;;5031829;28;20053;-65
2022/07/08 02:34:03;;;;;;;12.50;2.60;;;;;;;;;;5032908;28;20636;-66
2022/07/08 02:36:29;;;;;;;15.80;2.30;;;;;;;;;;5032752;28;20029;-65
2022/07/08 02:38:54;;;;;;;18.77;3.13;;;;;;;;;;5032524;28;20026;-65
2022/07/08 02:41:20;;;;;;;23.63;2.92;;;;;;;;;;5032660;28;20163;-65
2022/07/08 02:43:45;;;;;;;13.02;2.50;;;;;;;;;;5032893;28;20025;-66
2022/07/08 02:46:11;;;;;;;10.85;2.17;;;;;;;;;;5032894;28;20040;-65
2022/07/08 02:48:36;;;;;;;13.65;2.45;;;;;;;;;;5031575;28;20445;-66
2022/07/08 02:51:02;;;;;;;14.75;2.58;;;;;;;;;;5032751;28;20033;-61
2022/07/08 02:53:28;;;;;;;21.80;2.42;;;;;;;;;;5032431;28;20021;-65
2022/07/08 02:55:54;;;;;;;12.73;2.47;;;;;;;;;;5032734;28;20387;-66
2022/07/08 02:58:19;;;;;;;18.48;2.88;;;;;;;;;;5032689;28;20038;-66
2022/07/08 03:00:45;;;;;;;12.00;2.80;;;;;;;;;;5032765;28;20021;-63
2022/07/08 03:03:10;;;;;;;20.83;5.90;;;;;;;;;;5032347;28;20041;-65
2022/07/08 03:05:36;;;;;;;16.67;4.20;;;;;;;;;;5032551;28;20099;-63
2022/07/08 03:08:02;;;;;;;11.93;2.25;;;;;;;;;;5032277;28;20475;-66
2022/07/08 03:10:28;;;;;;;13.32;2.60;;;;;;;;;;5032580;28;20080;-65
2022/07/08 03:12:53;;;;;;;13.35;2.47;;;;;;;;;;5032456;28;20040;-66
2022/07/08 03:15:19;;;;;;;22.90;3.28;;;;;;;;;;5032396;28;20076;-65
2022/07/08 03:17:44;;;;;;;15.52;3.05;;;;;;;;;;5032593;28;20459;-64
2022/07/08 03:20:10;;;;;;;12.73;3.00;;;;;;;;;;5032432;28;20029;-66
2022/07/08 03:22:36;;;;;;;13.73;2.65;;;;;;;;;;5031735;28;20492;-66
2022/07/08 03:25:02;;;;;;;14.13;2.35;;;;;;;;;;5032502;28;20026;-64
2022/07/08 03:27:27;;;;;;;10.88;3.35;;;;;;;;;;5032264;28;20397;-66
2022/07/08 03:29:53;;;;;;;11.77;2.78;;;;;;;;;;5031161;28;20041;-66
2022/07/08 03:32:18;;;;;;;13.30;2.80;;;;;;;;;;5032346;28;20029;-63
2022/07/08 03:34:44;;;;;;;20.83;2.45;;;;;;;;;;5032005;28;20022;-65
2022/07/08 03:37:09;;;;;;;12.32;2.10;;;;;;;;;;5031981;28;20029;-65
2022/07/08 03:39:35;;;;;;;13.40;2.50;;;;;;;;;;5034875;28;20022;-67
2022/07/08 03:42:01;;;;;;;7.57;2.65;;;;;;;;;;5036079;28;20060;-66
2022/07/08 03:44:26;;;;;;;11.48;2.60;;;;;;;;;;5035851;28;20025;-65
2022/07/08 03:46:52;;;;;;;6.47;2.40;;;;;;;;;;5035929;28;20387;-66
2022/07/08 03:49:18;;;;;;;13.00;2.75;;;;;;;;;;5035836;28;20076;-66
2022/07/08 03:51:43;;;;;;;11.80;2.55;;;;;;;;;;5035857;28;20437;-66
2022/07/08 03:54:09;;;;;;;10.93;2.50;;;;;;;;;;5035670;28;20033;-65
2022/07/08 03:56:35;;;;;;;7.22;1.83;;;;;;;;;;5034360;28;20406;-66
2022/07/08 03:59:01;;;;;;;10.65;1.85;;;;;;;;;;5035733;28;20030;-65
2022/07/08 04:01:26;;;;;;;12.38;2.33;;;;;;;;;;5035480;28;20498;-65
2022/07/08 04:03:52;;;;;;;6.45;1.85;;;;;;;;;;5035400;28;20072;-66
2022/07/08 04:06:17;;;;;;;9.88;1.50;;;;;;;;;;5035598;28;20479;-68
2022/07/08 04:08:43;;;;;;;11.07;2.42;;;;;;;;;;5035383;28;20462;-64
2022/07/08 04:11:08;;;;;;;6.50;1.70;;;;;;;;;;5035400;28;20033;-63
2022/07/08 04:13:34;;;;;;;9.65;1.90;;;;;;;;;;5035507;28;20041;-65
2022/07/08 04:16:00;;;;;;;5.03;1.73;;;;;;;;;;5035267;28;20033;-64
2022/07/08 04:18:26;;;;;;;9.05;2.03;;;;;;;;;;5035222;28;20036;-66
2022/07/08 04:20:51;;;;;;;7.80;1.83;;;;;;;;;;5035056;28;20418;-65
2022/07/08 04:23:17;;;;;;;9.52;1.65;;;;;;;;;;5035210;28;20100;-63
2022/07/08 04:25:43;;;;;;;7.45;1.50;;;;;;;;;;5035368;28;20029;-67
2022/07/08 04:28:08;;;;;;;9.40;1.60;;;;;;;;;;5035015;28;20035;-66
2022/07/08 04:30:34;;;;;;;6.25;1.90;;;;;;;;;;5034946;28;20390;-65
2022/07/08 04:32:59;;;;;;;5.93;1.50;;;;;;;;;;5034928;28;20534;-65
2022/07/08 04:35:25;;;;;;;7.57;1.40;;;;;;;;;;5035067;28;20026;-65
2022/07/08 04:37:50;;;;;;;6.63;1.50;;;;;;;;;;5035057;28;20099;-66
2022/07/08 04:40:16;;;;;;;4.65;1.40;;;;;;;;;;5034916;28;20383;-66
2022/07/08 04:42:42;;;;;;;7.47;1.42;;;;;;;;;;5034853;28;20017;-66
2022/07/08 04:45:08;;;;;;;7.53;1.70;;;;;;;;;;5034849;28;20026;-64
2022/07/08 04:47:33;;;;;;;3.72;1.55;;;;;;;;;;5034583;28;20955;-64
2022/07/08 04:49:59;;;;;;;6.13;1.30;;;;;;;;;;5033800;28;20021;-63
2022/07/08 04:52:25;;;;;;;6.25;1.30;;;;;;;;;;5034804;28;20146;-65
2022/07/08 04:54:50;;;;;;;9.05;1.50;;;;;;;;;;5034516;28;20475;-65
2022/07/08 04:57:16;;;;;;;6.20;1.48;;;;;;;;;;5034493;28;20487;-62
2022/07/08 04:59:42;;;;;;;7.10;1.63;;;;;;;;;;5034462;28;20486;-65
2022/07/08 05:02:08;;;;;;;5.97;1.50;;;;;;;;;;5033655;28;20047;-65
2022/07/08 05:04:33;;;;;;;6.28;1.35;;;;;;;;;;5034568;28;20025;-64
2022/07/08 05:06:59;;;;;;;8.32;1.73;;;;;;;;;;5034459;28;20040;-64
2022/07/08 05:09:24;;;;;;;13.57;1.58;;;;;;;;;;5034337;28;20025;-64
2022/07/08 05:11:51;;;;;;;6.13;1.42;;;;;;;;;;5034408;28;20025;-65
2022/07/08 05:14:16;;;;;;;9.93;1.60;;;;;;;;;;5034154;28;20037;-64
2022/07/08 05:16:43;;;;;;;5.97;1.40;;;;;;;;;;5033967;28;20030;-64
2022/07/08 05:19:09;;;;;;;5.15;1.58;;;;;;;;;;5034166;28;20087;-66
2022/07/08 05:21:36;;;;;;;6.43;1.50;;;;;;;;;;5033866;28;20021;-66
2022/07/08 05:24:04;;;;;;;3.90;1.35;;;;;;;;;;5034047;28;20390;-64
2022/07/08 05:26:30;;;;;;;5.45;1.40;;;;;;;;;;5032813;28;20037;-64
2022/07/08 05:28:56;;;;;;;4.95;1.60;;;;;;;;;;5033932;28;20379;-65
2022/07/08 05:31:21;;;;;;;13.30;1.90;;;;;;;;;;5033500;28;20026;-65
2022/07/08 05:33:47;;;;;;;6.13;1.80;;;;;;;;;;5034104;28;20029;-66
2022/07/08 05:36:12;;;;;;;5.68;1.83;;;;;;;;;;5033768;28;20040;-65
2022/07/08 05:38:38;;;;;;;7.32;2.05;;;;;;;;;;5033694;28;20059;-65
2022/07/08 05:41:03;;;;;;;9.80;1.77;;;;;;;;;;5033850;28;20525;-66
2022/07/08 05:43:29;;;;;;;8.80;1.50;;;;;;;;;;5033763;28;20025;-63
2022/07/08 05:45:54;;;;;;;7.68;1.55;;;;;;;;;;5033542;28;20120;-63
2022/07/08 05:48:21;;;;;;;10.07;1.90;;;;;;;;;;5033732;28;20119;-62
2022/07/08 05:50:48;;;;;;;7.85;1.80;;;;;;;;;;5033512;28;20026;-66
2022/07/08 05:53:16;;;;;;;9.75;1.88;;;;;;;;;;5033396;28;20040;-64
2022/07/08 05:55:43;;;;;;;11.57;1.83;;;;;;;;;;5033434;28;20025;-62
2022/07/08 05:58:08;;;;;;;6.32;1.65;;;;;;;;;;5033579;28;20029;-63
2022/07/08 06:00:34;;;;;;;8.48;1.92;;;;;;;;;;5033140;28;20087;-65
2022/07/08 06:02:59;;;;;;;7.95;2.08;;;;;;;;;;5032999;28;20077;-64
2022/07/08 06:05:25;;;;;;;12.05;3.00;;;;;;;;;;5033351;28;20034;-62
2022/07/08 06:07:50;;;;;;;5.93;1.30;;;;;;;;;;5033406;28;20381;-64
2022/07/08 06:10:16;;;;;;;6.00;1.80;;;;;;;;;;5033241;28;20022;-64
2022/07/08 06:12:41;;;;;;;7.63;1.73;;;;;;;;;;5033255;28;20021;-64
2022/07/08 06:15:07;;;;;;;8.80;1.67;;;;;;;;;;5032822;28;20033;-65
2022/07/08 06:17:37;;;;;;;11.52;2.00;;;;;;;;;;5028204;28;20037;-66
2022/07/08 06:20:03;;;;;;;6.85;1.58;;;;;;;;;;5013386;28;20022;-66
2022/07/08 06:22:28;;;;;;;13.93;2.10;;;;;;;;;;5027749;28;20370;-63
2022/07/08 06:24:55;;;;;;;4.53;1.30;;;;;;;;;;5033283;28;20129;-61
2022/07/08 06:27:20;;;;;;;11.77;2.40;;;;;;;;;;5032927;28;20029;-64
2022/07/08 06:29:46;;;;;;;7.30;1.58;;;;;;;;;;5032854;28;20108;-62
2022/07/08 06:32:11;;;;;;;7.32;1.75;;;;;;;;;;5033152;28;20095;-63
2022/07/08 06:34:37;;;;;;;6.30;1.75;;;;;;;;;;5033043;28;20383;-62
2022/07/08 06:37:03;;;;;;;5.22;1.73;;;;;;;;;;5032768;28;20487;-61
2022/07/08 06:39:28;;;;;;;12.07;2.30;;;;;;;;;;5032853;28;20030;-62
2022/07/08 06:41:54;;;;;;;12.20;1.77;;;;;;;;;;5032951;28;20048;-62
2022/07/08 06:44:19;;;;;;;5.93;1.50;;;;;;;;;;5032704;28;20026;-65
2022/07/08 06:46:45;;;;;;;7.30;1.60;;;;;;;;;;5032666;28;20048;-65
2022/07/08 06:49:11;;;;;;;11.68;2.40;;;;;;;;;;5032707;28;20049;-65
2022/07/08 06:51:36;;;;;;;8.00;2.00;;;;;;;;;;5032464;28;20140;-64
2022/07/08 06:56:45;;;;;;;8.48;1.63;;;;;;;;;;5032840;28;20033;-66
2022/07/08 06:59:11;;;;;;;9.15;2.00;;;;;;;;;;5011232;28;20363;-65
2022/07/08 07:01:37;;;;;;;7.47;1.80;;;;;;;;;;5027688;28;20120;-66
2022/07/08 07:04:03;;;;;;;6.32;1.70;;;;;;;;;;5028897;28;20045;-65
2022/07/08 07:06:29;;;;;;;5.15;1.50;;;;;;;;;;5028416;28;20097;-65
2022/07/08 07:08:55;;;;;;;5.95;1.50;;;;;;;;;;5027736;28;20030;-63
2022/07/08 07:11:20;;;;;;;4.82;1.63;;;;;;;;;;5028505;28;20026;-65
2022/07/08 07:13:47;;;;;;;6.18;1.52;;;;;;;;;;5028490;28;20171;-65
2022/07/08 07:16:14;;;;;;;7.22;1.52;;;;;;;;;;5032004;28;20116;-65
2022/07/08 07:18:40;;;;;;;6.38;1.67;;;;;;;;;;5033663;28;20045;-65
2022/07/08 07:21:05;;;;;;;8.13;2.42;;;;;;;;;;5033244;28;20032;-65
2022/07/08 07:23:31;;;;;;;4.95;1.45;;;;;;;;;;5034801;28;20026;-66
2022/07/08 07:25:57;;;;;;;7.70;1.70;;;;;;;;;;5036380;28;20475;-66
2022/07/08 07:28:23;;;;;;;8.02;1.85;;;;;;;;;;5034251;28;20391;-66
2022/07/08 07:30:49;;;;;;;9.32;1.90;;;;;;;;;;5036148;28;20026;-66
2022/07/08 07:33:15;;;;;;;8.38;1.98;;;;;;;;;;5036075;28;20467;-65
2022/07/08 07:35:40;;;;;;;7.68;2.13;;;;;;;;;;5026869;28;20030;-64
2022/07/08 07:38:06;;;;;;;10.43;2.10;;;;;;;;;;5027705;28;20049;-66
2022/07/08 07:40:32;;;;;;;11.40;2.10;;;;;;;;;;5032053;28;20025;-66
2022/07/08 07:42:57;;;;;;;8.65;2.00;;;;;;;;;;5030632;28;20038;-63
2022/07/08 07:45:23;;;;;;;10.65;1.80;;;;;;;;;;5031783;28;20033;-66
2022/07/08 07:47:48;;;;;;;6.43;1.90;;;;;;;;;;5032339;28;20112;-66
2022/07/08 07:50:14;;;;;;;9.27;2.00;;;;;;;;;;5031873;28;20028;-66
2022/07/08 07:52:39;;;;;;;5.20;1.52;;;;;;;;;;5031389;28;20025;-66
2022/07/08 07:55:06;;;;;;;14.07;2.40;;;;;;;;;;5032485;28;20129;-66
2022/07/08 07:57:32;;;;;;;7.35;1.90;;;;;;;;;;5031427;28;20041;-66
2022/07/08 07:59:57;;;;;;;8.48;1.65;;;;;;;;;;5030830;28;20017;-65
2022/07/08 08:02:23;;;;;;;8.77;1.90;;;;;;;;;;5031352;28;20045;-66
2022/07/08 08:04:48;;;;;;;3.90;1.55;;;;;;;;;;5031374;28;20025;-65
2022/07/08 08:07:14;;;;;;;9.00;2.00;;;;;;;;;;5031574;28;20028;-66
2022/07/08 08:09:39;;;;;;;5.10;2.05;;;;;;;;;;5032013;28;20384;-66
2022/07/08 08:12:05;;;;;;;5.50;1.55;;;;;;;;;;5030559;28;20025;-65
2022/07/08 08:14:30;;;;;;;7.10;2.10;;;;;;;;;;5032371;28;20033;-66
2022/07/08 08:16:56;;;;;;;6.40;1.83;;;;;;;;;;5031806;28;20033;-65
2022/07/08 08:19:21;;;;;;;7.93;1.55;;;;;;;;;;5031596;28;20028;-66
2022/07/08 08:21:47;;;;;;;7.43;1.80;;;;;;;;;;5030587;28;20037;-64
2022/07/08 08:24:13;;;;;;;6.93;1.70;;;;;;;;;;5028753;28;20037;-66
2022/07/08 08:26:38;;;;;;;5.78;1.50;;;;;;;;;;5030941;28;20033;-65
2022/07/08 08:29:04;;;;;;;6.07;1.55;;;;;;;;;;5031239;28;20022;-65
2022/07/08 08:31:29;;;;;;;7.03;1.85;;;;;;;;;;5030636;28;20025;-66
2022/07/08 08:33:55;;;;;;;5.40;1.65;;;;;;;;;;5031525;28;20021;-65
2022/07/08 08:36:23;;;;;;;8.32;2.20;;;;;;;;;;5030648;28;20045;-65
2022/07/08 08:38:50;;;;;;;5.30;1.40;;;;;;;;;;5030636;28;20022;-66
2022/07/08 08:41:15;;;;;;;8.50;1.80;;;;;;;;;;5030638;28;20428;-63
2022/07/08 08:43:41;;;;;;;5.90;1.60;;;;;;;;;;5031012;28;20021;-66
2022/07/08 08:46:10;;;;;;;6.70;2.35;;;;;;;;;;5031245;28;20037;-66
2022/07/08 08:48:37;;;;;;;5.03;1.45;;;;;;;;;;5029420;28;20091;-66
2022/07/08 08:51:07;;;;;;;8.60;1.52;;;;;;;;;;5030371;28;20021;-65
2022/07/08 08:53:54;;;;;;;4.03;1.58;;;;;;;;;;5030455;28;20489;-65
2022/07/08 08:56:20;;;;;;;5.90;1.67;;;;;;;;;;5030217;28;20053;-66
2022/07/08 08:58:47;;;;;;;7.90;1.50;;;;;;;;;;5046114;28;20083;-63
2022/07/08 09:01:14;;;;;;;6.32;1.42;;;;;;;;;;5030159;28;20061;-66
2022/07/08 09:03:39;;;;;;;4.05;1.48;;;;;;;;;;5029816;28;20462;-65
2022/07/08 09:06:06;;;;;;;6.22;1.45;;;;;;;;;;5029573;28;20120;-66
2022/07/08 09:08:32;;;;;;;5.50;1.70;;;;;;;;;;5029396;28;20060;-65
2022/07/08 09:10:59;;;;;;;8.05;1.63;;;;;;;;;;5030041;28;20028;-66
2022/07/08 09:13:25;;;;;;;9.98;1.90;;;;;;;;;;5030367;28;20025;-65
2022/07/08 09:15:57;;;;;;;8.90;1.50;;;;;;;;;;5045396;28;20079;-64
2022/07/08 09:18:29;;;;;;;7.15;1.70;;;;;;;;;;5031037;28;20120;-64
2022/07/08 09:20:56;;;;;;;6.05;1.50;;;;;;;;;;5030520;28;20595;-66
2022/07/08 09:23:26;;;;;;;7.18;1.45;;;;;;;;;;5029919;28;20043;-65
2022/07/08 09:25:54;;;;;;;6.03;1.60;;;;;;;;;;5029949;28;20029;-64
2022/07/08 09:28:35;;;;;;;7.68;1.77;;;;;;;;;;5030780;28;20040;-65
2022/07/08 09:31:08;;;;;;;7.68;2.25;;;;;;;;;;5029281;28;20029;-66
2022/07/08 09:33:36;;;;;;;8.70;1.50;;;;;;;;;;5030201;28;20074;-66
2022/07/08 09:36:03;;;;;;;9.85;1.90;;;;;;;;;;5028781;28;20033;-65
2022/07/08 09:38:31;;;;;;;5.28;1.60;;;;;;;;;;5029610;28;20025;-64
2022/07/08 09:40:57;;;;;;;9.85;2.13;;;;;;;;;;5030198;28;20029;-63
2022/07/08 09:43:24;;;;;;;4.85;1.10;;;;;;;;;;5029867;28;20024;-65
2022/07/08 09:45:50;;;;;;;6.18;1.40;;;;;;;;;;5029959;28;20065;-65
2022/07/08 09:48:15;;;;;;;10.32;2.20;;;;;;;;;;5029980;28;20052;-65
2022/07/08 09:50:47;;;;;;;8.32;1.73;;;;;;;;;;5029863;28;20037;-63
2022/07/08 09:53:17;;;;;;;6.70;1.50;;;;;;;;;;5029450;28;20029;-65
2022/07/08 09:55:47;;;;;;;6.75;1.42;;;;;;;;;;5030121;28;20130;-65
2022/07/08 09:58:14;;;;;;;7.45;1.80;;;;;;;;;;5030222;28;20036;-65
2022/07/08 10:00:41;;;;;;;3.55;1.20;;;;;;;;;;5030135;28;20596;-65
2022/07/08 10:03:07;;;;;;;7.28;1.80;;;;;;;;;;5029050;28;20146;-67
2022/07/08 10:05:34;;;;;;;6.60;1.65;;;;;;;;;;5029595;28;20505;-66
2022/07/08 10:07:59;;;;;;;5.97;1.40;;;;;;;;;;5028740;28;20022;-63
2022/07/08 10:10:25;;;;;;;7.97;1.25;;;;;;;;;;5030194;28;20063;-66
2022/07/08 10:12:56;;;;;;;6.65;1.40;;;;;;;;;;5029478;28;20035;-67
2022/07/08 10:15:24;;;;;;;7.28;1.63;;;;;;;;;;5030193;28;20360;-65
2022/07/08 10:17:50;;;;;;;7.53;1.60;;;;;;;;;;5029239;28;20497;-65
2022/07/08 10:20:19;;;;;;;12.43;1.50;;;;;;;;;;5029606;28;20029;-65
2022/07/08 10:22:49;;;;;;;9.38;1.75;;;;;;;;;;5028221;28;20025;-65
2022/07/08 10:25:18;;;;;;;7.65;1.85;;;;;;;;;;5029504;28;20032;-63
2022/07/08 10:27:45;;;;;;;8.63;1.55;;;;;;;;;;5029334;28;20117;-66
2022/07/08 10:30:17;;;;;;;5.78;1.60;;;;;;;;;;5028618;28;20025;-64
2022/07/08 10:32:49;;;;;;;7.32;1.60;;;;;;;;;;5028333;28;20486;-63
2022/07/08 10:35:19;;;;;;;10.98;1.80;;;;;;;;;;5028482;28;20087;-64
2022/07/08 10:37:57;;;;;;;9.85;2.08;;;;;;;;;;5028602;28;20500;-65
2022/07/08 10:40:38;;;;;;;9.23;1.70;;;;;;;;;;5028686;28;20372;-65
2022/07/08 10:43:25;;;;;;;9.90;2.03;;;;;;;;;;5029258;28;20374;-65
2022/07/08 10:46:01;;;;;;;14.20;1.98;;;;;;;;;;5028187;28;20030;-66
2022/07/08 10:48:40;;;;;;;7.35;1.58;;;;;;;;;;5027368;28;20059;-63
2022/07/08 10:51:06;;;;;;;5.78;1.58;;;;;;;;;;5027525;28;20068;-66
2022/07/08 10:54:01;;;;;;;10.13;1.60;;;;;;;;;;5028917;28;20029;-65
2022/07/08 10:56:48;;;;;;;10.73;2.17;;;;;;;;;;5019399;28;20038;-63
2022/07/08 10:59:18;;;;;;;8.88;1.40;;;;;;;;;;5029132;28;20025;-64
2022/07/08 11:02:07;;;;;;;8.90;1.80;;;;;;;;;;5028355;28;20103;-64
2022/07/08 11:04:38;;;;;;;15.18;2.17;;;;;;;;;;5028994;28;20034;-64
2022/07/08 11:07:28;;;;;;;7.40;1.67;;;;;;;;;;5028479;28;20463;-65
2022/07/08 11:10:13;;;;;;;5.10;1.23;;;;;;;;;;5025608;28;20037;-65
2022/07/08 11:12:39;;;;;;;12.18;2.00;;;;;;;;;;5028030;28;20555;-65
2022/07/08 11:15:13;;;;;;;8.57;1.73;;;;;;;;;;5028459;28;20099;-66
2022/07/08 11:17:40;;;;;;;9.98;2.00;;;;;;;;;;5028270;28;20425;-66
2022/07/08 11:20:09;;;;;;;4.78;1.60;;;;;;;;;;5027040;28;20029;-65
2022/07/08 11:22:37;;;;;;;7.82;1.58;;;;;;;;;;5027571;28;20103;-65
2022/07/08 11:25:04;;;;;;;11.48;1.73;;;;;;;;;;5027934;28;20343;-64
2022/07/08 11:27:33;;;;;;;10.18;1.55;;;;;;;;;;5028424;28;20026;-66
2022/07/08 11:29:59;;;;;;;5.78;1.70;;;;;;;;;;5027379;28;20104;-64
2022/07/08 11:32:27;;;;;;;5.50;1.50;;;;;;;;;;5029384;28;20087;-66
2022/07/08 11:34:55;;;;;;;5.38;1.50;;;;;;;;;;5027631;28;20562;-66
2022/07/08 11:37:21;;;;;;;5.18;1.30;;;;;;;;;;5028203;28;20120;-66
2022/07/08 11:39:47;;;;;;;6.68;1.65;;;;;;;;;;5027114;28;20033;-65
2022/07/08 11:42:14;;;;;;;4.78;1.30;;;;;;;;;;5026950;28;20488;-66
2022/07/08 11:44:40;;;;;;;7.45;1.77;;;;;;;;;;5028125;28;20025;-66
2022/07/08 11:47:06;;;;;;;5.40;1.27;;;;;;;;;;5028805;28;20029;-66
2022/07/08 11:49:33;;;;;;;7.18;2.25;;;;;;;;;;5028309;28;20068;-65
2022/07/08 11:51:59;;;;;;;7.68;1.70;;;;;;;;;;5027734;28;20026;-64
2022/07/08 11:54:28;;;;;;;5.72;1.40;;;;;;;;;;5026841;28;20478;-65
2022/07/08 11:56:57;;;;;;;9.98;1.65;;;;;;;;;;5027621;28;20072;-65
2022/07/08 11:59:31;;;;;;;7.35;1.77;;;;;;;;;;5028752;28;20030;-66
2022/07/08 12:01:58;;;;;;;8.10;1.50;;;;;;;;;;5031442;28;20121;-65
2022/07/08 12:04:25;;;;;;;6.25;1.50;;;;;;;;;;5031960;28;20044;-64
2022/07/08 12:06:52;;;;;;;7.35;1.40;;;;;;;;;;5031474;28;20045;-68
2022/07/08 12:09:20;;;;;;;4.57;1.33;;;;;;;;;;5031197;28;20021;-67
2022/07/08 12:11:48;;;;;;;8.75;1.67;;;;;;;;;;5031585;28;20028;-63
2022/07/08 12:14:14;;;;;;;3.67;1.10;;;;;;;;;;5032222;28;20430;-64
2022/07/08 12:16:40;;;;;;;5.32;1.25;;;;;;;;;;5031810;28;20026;-64
2022/07/08 12:19:05;;;;;;;7.22;1.60;;;;;;;;;;5030683;28;20099;-64
2022/07/08 12:21:31;;;;;;;5.38;1.50;;;;;;;;;;5030103;28;20033;-65
2022/07/08 12:24:04;;;;;;;8.48;1.23;;;;;;;;;;5031262;28;20037;-64
2022/07/08 12:26:30;;;;;;;7.10;1.30;;;;;;;;;;5031835;28;20025;-65
2022/07/08 12:28:56;;;;;;;10.23;1.48;;;;;;;;;;5030631;28;20021;-65
2022/07/08 12:31:39;;;;;;;5.50;1.38;;;;;;;;;;5030780;28;20048;-64
2022/07/08 12:34:06;;;;;;;7.32;1.60;;;;;;;;;;5031442;28;20064;-66
2022/07/08 12:36:35;;;;;;;4.72;1.58;;;;;;;;;;5031047;28;20029;-65
2022/07/08 12:39:31;;;;;;;10.23;1.50;;;;;;;;;;5030797;28;20047;-66
2022/07/08 12:42:02;;;;;;;8.13;1.17;;;;;;;;;;5018101;28;20048;-65
2022/07/08 12:44:30;;;;;;;5.30;1.30;;;;;;;;;;5031676;28;20470;-65
2022/07/08 12:46:56;;;;;;;9.68;1.60;;;;;;;;;;5030776;28;20033;-65
2022/07/08 12:49:30;;;;;;;5.97;1.27;;;;;;;;;;5046174;28;20036;-66
2022/07/08 12:51:57;;;;;;;12.18;1.60;;;;;;;;;;5031435;28;20031;-65
2022/07/08 12:54:23;;;;;;;11.82;1.58;;;;;;;;;;5031338;28;20028;-65
2022/07/08 12:56:49;;;;;;;8.05;1.70;;;;;;;;;;5030927;28;20033;-68
2022/07/08 12:59:14;;;;;;;7.65;1.70;;;;;;;;;;5029900;28;20030;-65
2022/07/08 13:01:40;;;;;;;8.25;1.35;;;;;;;;;;5029870;28;20486;-65
2022/07/08 13:04:06;;;;;;;7.00;1.52;;;;;;;;;;5029999;28;20099;-66
2022/07/08 13:06:32;;;;;;;7.90;1.90;;;;;;;;;;5030894;28;20116;-67
2022/07/08 13:08:57;;;;;;;4.57;1.30;;;;;;;;;;5030506;28;20025;-66
2022/07/08 13:11:23;;;;;;;8.77;1.60;;;;;;;;;;5029263;28;20033;-66
2022/07/08 13:13:48;;;;;;;9.40;1.45;;;;;;;;;;5030704;28;20419;-66
2022/07/08 13:16:14;;;;;;;6.30;1.30;;;;;;;;;;5030077;28;20040;-66
2022/07/08 13:18:40;;;;;;;7.22;1.42;;;;;;;;;;5029827;28;20033;-66
2022/07/08 13:21:05;;;;;;;4.97;1.52;;;;;;;;;;5029251;28;20082;-64
2022/07/08 13:23:31;;;;;;;4.35;1.20;;;;;;;;;;5030406;28;20055;-66
2022/07/08 13:25:57;;;;;;;7.53;2.03;;;;;;;;;;5031535;28;20032;-66
2022/07/08 13:28:22;;;;;;;5.88;1.40;;;;;;;;;;5033871;28;20219;-67
2022/07/08 13:30:48;;;;;;;4.65;1.33;;;;;;;;;;5032849;28;20453;-66
2022/07/08 13:33:13;;;;;;;6.18;1.50;;;;;;;;;;5033571;28;20065;-67
2022/07/08 13:35:39;;;;;;;3.38;1.65;;;;;;;;;;5033791;28;20471;-66
2022/07/08 13:38:05;;;;;;;7.45;1.30;;;;;;;;;;5033642;28;20045;-65
2022/07/08 13:40:30;;;;;;;5.20;1.33;;;;;;;;;;5010414;28;20036;-66
2022/07/08 13:42:56;;;;;;;5.70;1.40;;;;;;;;;;5029688;28;20052;-63
2022/07/08 13:45:21;;;;;;;6.55;1.20;;;;;;;;;;5030851;28;20585;-66
2022/07/08 13:47:47;;;;;;;4.45;1.10;;;;;;;;;;5029550;28;20082;-67
2022/07/08 13:50:12;;;;;;;3.58;1.00;;;;;;;;;;5029570;28;20025;-65
2022/07/08 13:52:38;;;;;;;5.28;1.10;;;;;;;;;;5030165;28;20021;-64
2022/07/08 13:55:05;;;;;;;4.47;1.05;;;;;;;;;;5030355;28;20355;-65
2022/07/08 13:57:31;;;;;;;9.80;1.67;;;;;;;;;;5029268;28;20486;-65
2022/07/08 13:59:57;;;;;;;3.38;1.00;;;;;;;;;;5029356;28;20096;-66
2022/07/08 14:02:23;;;;;;;4.28;1.10;;;;;;;;;;5029674;28;20041;-64
2022/07/08 14:04:48;;;;;;;4.57;1.33;;;;;;;;;;5029435;28;20068;-64
2022/07/08 14:07:14;;;;;;;3.13;1.08;;;;;;;;;;5030154;28;20406;-64
2022/07/08 14:09:40;;;;;;;3.15;1.02;;;;;;;;;;5029290;28;20037;-66
2022/07/08 14:12:08;;;;;;;6.05;1.30;;;;;;;;;;5029046;28;20059;-64
2022/07/08 14:14:33;;;;;;;8.77;1.27;;;;;;;;;;5029342;28;20062;-64
2022/07/08 14:16:59;;;;;;;9.75;1.45;;;;;;;;;;5028574;28;20100;-66
2022/07/08 14:19:25;;;;;;;6.78;1.40;;;;;;;;;;5029512;28;20045;-63
2022/07/08 14:21:50;;;;;;;3.83;1.30;;;;;;;;;;5029776;28;20025;-65
2022/07/08 14:24:17;;;;;;;3.08;1.42;;;;;;;;;;5028254;28;20427;-65
2022/07/08 14:26:43;;;;;;;4.85;1.33;;;;;;;;;;5028570;28;20091;-66
2022/07/08 14:29:08;;;;;;;2.40;1.00;;;;;;;;;;5030104;28;20487;-65
2022/07/08 14:31:34;;;;;;;4.05;1.40;;;;;;;;;;5028775;28;20032;-66
2022/07/08 14:34:00;;;;;;;4.38;1.30;;;;;;;;;;5028831;28;20021;-66
2022/07/08 14:36:25;;;;;;;3.97;1.30;;;;;;;;;;5028930;28;20030;-64
2022/07/08 14:38:51;;;;;;;5.10;1.40;;;;;;;;;;5028894;28;20116;-67
2022/07/08 14:41:16;;;;;;;4.28;1.50;;;;;;;;;;5028643;28;20037;-66
2022/07/08 14:43:42;;;;;;;4.88;1.42;;;;;;;;;;5027712;28;20504;-65